sensor_id;sensor_type;location;lat;lon;timestamp;P1;durP1;ratioP1;P2;durP2;ratioP2
33993;SDS011;20673;48.980;8.138;2023-08-30T00:00:58;12.30;;;11.00;;
33993;SDS011;20673;48.980;8.138;2023-08-30T00:03:24;11.15;;;10.15;;
33993;SDS011;20673;48.980;8.138;2023-08-30T00:05:50;14.03;;;12.70;;
33993;SDS011;20673;48.980;8.138;2023-08-30T00:08:16;13.40;;;11.90;;
33993;SDS011;20673;48.980;8.138;2023-08-30T00:10:44;13.97;;;12.37;;
33993;SDS011;20673;48.980;8.138;2023-08-30T00:13:11;12.95;;;11.65;;
33993;SDS011;20673;48.980;8.138;2023-08-30T00:15:37;13.35;;;11.55;;
33993;SDS011;20673;48.980;8.138;2023-08-30T00:18:03;13.65;;;12.35;;
33993;SDS011;20673;48.980;8.138;2023-08-30T00:20:31;13.77;;;12.37;;
33993;SDS011;20673;48.980;8.138;2023-08-30T00:22:57;13.43;;;12.17;;
33993;SDS011;20673;48.980;8.138;2023-08-30T00:25:23;11.20;;;10.10;;
33993;SDS011;20673;48.980;8.138;2023-08-30T00:27:49;12.50;;;11.30;;
33993;SDS011;20673;48.980;8.138;2023-08-30T00:30:15;11.80;;;10.65;;
33993;SDS011;20673;48.980;8.138;2023-08-30T00:32:41;13.22;;;11.93;;
33993;SDS011;20673;48.980;8.138;2023-08-30T00:35:07;12.70;;;11.50;;
33993;SDS011;20673;48.980;8.138;2023-08-30T00:37:34;13.07;;;11.77;;
33993;SDS011;20673;48.980;8.138;2023-08-30T00:40:00;12.80;;;11.50;;
33993;SDS011;20673;48.980;8.138;2023-08-30T00:42:26;13.80;;;12.30;;
33993;SDS011;20673;48.980;8.138;2023-08-30T00:44:53;13.35;;;12.10;;
33993;SDS011;20673;48.980;8.138;2023-08-30T00:47:19;12.60;;;11.30;;
33993;SDS011;20673;48.980;8.138;2023-08-30T00:49:46;14.20;;;12.82;;
33993;SDS011;20673;48.980;8.138;2023-08-30T00:52:13;13.00;;;11.53;;
33993;SDS011;20673;48.980;8.138;2023-08-30T00:54:40;13.70;;;11.85;;
33993;SDS011;20673;48.980;8.138;2023-08-30T00:57:06;13.90;;;12.60;;
33993;SDS011;20673;48.980;8.138;2023-08-30T00:59:34;15.43;;;12.85;;
33993;SDS011;20673;48.980;8.138;2023-08-30T01:02:00;13.13;;;11.68;;
33993;SDS011;20673;48.980;8.138;2023-08-30T01:04:28;14.15;;;12.80;;
33993;SDS011;20673;48.980;8.138;2023-08-30T01:06:54;13.83;;;12.35;;
33993;SDS011;20673;48.980;8.138;2023-08-30T01:09:20;12.55;;;11.35;;
33993;SDS011;20673;48.980;8.138;2023-08-30T01:12:07;15.77;;;12.53;;
33993;SDS011;20673;48.980;8.138;2023-08-30T01:17:26;12.10;;;10.80;;
33993;SDS011;20673;48.980;8.138;2023-08-30T01:20:04;11.95;;;10.65;;
33993;SDS011;20673;48.980;8.138;2023-08-30T01:28:24;12.23;;;11.03;;
33993;SDS011;20673;48.980;8.138;2023-08-30T01:30:54;14.37;;;12.00;;
33993;SDS011;20673;48.980;8.138;2023-08-30T01:33:22;12.45;;;11.15;;
33993;SDS011;20673;48.980;8.138;2023-08-30T01:35:51;13.55;;;11.75;;
33993;SDS011;20673;48.980;8.138;2023-08-30T01:38:21;12.23;;;11.03;;
33993;SDS011;20673;48.980;8.138;2023-08-30T01:40:50;13.27;;;11.87;;
33993;SDS011;20673;48.980;8.138;2023-08-30T01:43:19;13.20;;;11.85;;
33993;SDS011;20673;48.980;8.138;2023-08-30T01:45:47;12.93;;;11.65;;
33993;SDS011;20673;48.980;8.138;2023-08-30T01:48:14;13.88;;;11.83;;
33993;SDS011;20673;48.980;8.138;2023-08-30T01:50:43;14.10;;;12.60;;
33993;SDS011;20673;48.980;8.138;2023-08-30T01:53:10;14.07;;;12.67;;
33993;SDS011;20673;48.980;8.138;2023-08-30T01:55:38;14.73;;;13.30;;
33993;SDS011;20673;48.980;8.138;2023-08-30T01:58:06;15.10;;;13.60;;
33993;SDS011;20673;48.980;8.138;2023-08-30T02:00:32;13.97;;;12.67;;
33993;SDS011;20673;48.980;8.138;2023-08-30T02:02:59;14.27;;;12.83;;
33993;SDS011;20673;48.980;8.138;2023-08-30T02:05:39;14.95;;;13.55;;
33993;SDS011;20673;48.980;8.138;2023-08-30T02:08:17;14.05;;;12.65;;
33993;SDS011;20673;48.980;8.138;2023-08-30T02:10:48;14.23;;;12.37;;
33993;SDS011;20673;48.980;8.138;2023-08-30T02:13:25;14.65;;;13.25;;
33993;SDS011;20673;48.980;8.138;2023-08-30T02:15:55;15.47;;;13.17;;
33993;SDS011;20673;48.980;8.138;2023-08-30T02:18:24;15.05;;;13.55;;
33993;SDS011;20673;48.980;8.138;2023-08-30T02:20:52;17.05;;;14.20;;
33993;SDS011;20673;48.980;8.138;2023-08-30T02:23:22;14.23;;;12.73;;
33993;SDS011;20673;48.980;8.138;2023-08-30T02:25:54;15.55;;;12.45;;
33993;SDS011;20673;48.980;8.138;2023-08-30T02:28:21;15.55;;;12.70;;
33993;SDS011;20673;48.980;8.138;2023-08-30T02:30:47;19.05;;;13.60;;
33993;SDS011;20673;48.980;8.138;2023-08-30T02:33:13;15.65;;;14.03;;
33993;SDS011;20673;48.980;8.138;2023-08-30T02:35:39;14.90;;;13.40;;
33993;SDS011;20673;48.980;8.138;2023-08-30T02:38:06;16.32;;;14.73;;
33993;SDS011;20673;48.980;8.138;2023-08-30T02:40:32;17.57;;;15.85;;
33993;SDS011;20673;48.980;8.138;2023-08-30T02:42:59;18.92;;;15.20;;
33993;SDS011;20673;48.980;8.138;2023-08-30T02:45:25;15.27;;;13.77;;
33993;SDS011;20673;48.980;8.138;2023-08-30T02:47:54;16.63;;;15.07;;
33993;SDS011;20673;48.980;8.138;2023-08-30T02:50:22;15.10;;;13.65;;
33993;SDS011;20673;48.980;8.138;2023-08-30T02:52:50;16.07;;;14.37;;
33993;SDS011;20673;48.980;8.138;2023-08-30T02:55:18;14.73;;;13.33;;
33993;SDS011;20673;48.980;8.138;2023-08-30T02:57:44;15.88;;;14.15;;
33993;SDS011;20673;48.980;8.138;2023-08-30T03:00:11;14.15;;;12.70;;
33993;SDS011;20673;48.980;8.138;2023-08-30T03:02:39;15.33;;;13.83;;
33993;SDS011;20673;48.980;8.138;2023-08-30T03:05:06;15.15;;;13.60;;
33993;SDS011;20673;48.980;8.138;2023-08-30T03:07:32;15.45;;;13.80;;
33993;SDS011;20673;48.980;8.138;2023-08-30T03:09:58;15.35;;;13.70;;
33993;SDS011;20673;48.980;8.138;2023-08-30T03:12:24;15.15;;;13.65;;
33993;SDS011;20673;48.980;8.138;2023-08-30T03:14:51;15.10;;;13.55;;
33993;SDS011;20673;48.980;8.138;2023-08-30T03:17:17;15.40;;;13.25;;
33993;SDS011;20673;48.980;8.138;2023-08-30T03:19:43;14.27;;;12.77;;
33993;SDS011;20673;48.980;8.138;2023-08-30T03:22:09;16.25;;;14.55;;
33993;SDS011;20673;48.980;8.138;2023-08-30T03:24:35;15.15;;;13.75;;
33993;SDS011;20673;48.980;8.138;2023-08-30T03:27:01;15.90;;;13.60;;
33993;SDS011;20673;48.980;8.138;2023-08-30T03:29:28;21.40;;;14.60;;
33993;SDS011;20673;48.980;8.138;2023-08-30T03:31:54;15.35;;;13.30;;
33993;SDS011;20673;48.980;8.138;2023-08-30T03:34:20;15.20;;;13.70;;
33993;SDS011;20673;48.980;8.138;2023-08-30T03:36:46;15.67;;;14.07;;
33993;SDS011;20673;48.980;8.138;2023-08-30T03:39:14;14.70;;;13.30;;
33993;SDS011;20673;48.980;8.138;2023-08-30T03:41:40;15.07;;;13.57;;
33993;SDS011;20673;48.980;8.138;2023-08-30T03:44:06;15.67;;;14.07;;
33993;SDS011;20673;48.980;8.138;2023-08-30T03:46:32;15.50;;;13.90;;
33993;SDS011;20673;48.980;8.138;2023-08-30T03:48:59;15.30;;;13.43;;
33993;SDS011;20673;48.980;8.138;2023-08-30T03:51:25;14.83;;;13.33;;
33993;SDS011;20673;48.980;8.138;2023-08-30T03:53:51;16.50;;;14.47;;
33993;SDS011;20673;48.980;8.138;2023-08-30T03:56:17;17.57;;;13.77;;
33993;SDS011;20673;48.980;8.138;2023-08-30T03:58:44;15.57;;;13.83;;
33993;SDS011;20673;48.980;8.138;2023-08-30T04:01:10;16.77;;;15.00;;
33993;SDS011;20673;48.980;8.138;2023-08-30T04:03:36;17.70;;;14.50;;
33993;SDS011;20673;48.980;8.138;2023-08-30T04:06:02;17.30;;;15.37;;
33993;SDS011;20673;48.980;8.138;2023-08-30T04:08:28;15.83;;;14.20;;
33993;SDS011;20673;48.980;8.138;2023-08-30T04:10:55;17.50;;;15.73;;
33993;SDS011;20673;48.980;8.138;2023-08-30T04:13:21;17.23;;;15.13;;
33993;SDS011;20673;48.980;8.138;2023-08-30T04:15:47;20.27;;;15.37;;
33993;SDS011;20673;48.980;8.138;2023-08-30T04:18:14;17.05;;;15.25;;
33993;SDS011;20673;48.980;8.138;2023-08-30T04:20:44;16.10;;;14.40;;
33993;SDS011;20673;48.980;8.138;2023-08-30T04:23:11;16.60;;;14.90;;
33993;SDS011;20673;48.980;8.138;2023-08-30T04:25:38;17.23;;;15.43;;
33993;SDS011;20673;48.980;8.138;2023-08-30T04:28:05;18.00;;;14.07;;
33993;SDS011;20673;48.980;8.138;2023-08-30T04:30:31;15.93;;;14.33;;
33993;SDS011;20673;48.980;8.138;2023-08-30T04:32:57;16.63;;;14.73;;
33993;SDS011;20673;48.980;8.138;2023-08-30T04:35:24;14.95;;;13.45;;
33993;SDS011;20673;48.980;8.138;2023-08-30T04:37:50;15.77;;;14.17;;
33993;SDS011;20673;48.980;8.138;2023-08-30T04:40:16;16.05;;;14.45;;
33993;SDS011;20673;48.980;8.138;2023-08-30T04:42:43;15.77;;;13.63;;
33993;SDS011;20673;48.980;8.138;2023-08-30T04:45:09;18.27;;;16.37;;
33993;SDS011;20673;48.980;8.138;2023-08-30T04:47:35;17.60;;;15.57;;
33993;SDS011;20673;48.980;8.138;2023-08-30T04:50:01;18.90;;;14.70;;
33993;SDS011;20673;48.980;8.138;2023-08-30T04:52:28;15.13;;;13.53;;
33993;SDS011;20673;48.980;8.138;2023-08-30T04:54:54;17.23;;;15.20;;
33993;SDS011;20673;48.980;8.138;2023-08-30T04:57:20;16.60;;;13.80;;
33993;SDS011;20673;48.980;8.138;2023-08-30T04:59:46;19.77;;;15.93;;
33993;SDS011;20673;48.980;8.138;2023-08-30T05:02:13;19.55;;;15.15;;
33993;SDS011;20673;48.980;8.138;2023-08-30T05:04:39;16.67;;;15.03;;
33993;SDS011;20673;48.980;8.138;2023-08-30T05:07:05;17.50;;;14.90;;
33993;SDS011;20673;48.980;8.138;2023-08-30T05:09:32;16.95;;;15.15;;
33993;SDS011;20673;48.980;8.138;2023-08-30T05:11:59;17.27;;;15.03;;
33993;SDS011;20673;48.980;8.138;2023-08-30T05:14:26;18.95;;;15.55;;
33993;SDS011;20673;48.980;8.138;2023-08-30T05:16:52;16.30;;;14.60;;
33993;SDS011;20673;48.980;8.138;2023-08-30T05:19:18;16.97;;;15.23;;
33993;SDS011;20673;48.980;8.138;2023-08-30T05:21:45;17.75;;;14.60;;
33993;SDS011;20673;48.980;8.138;2023-08-30T05:24:12;15.97;;;14.23;;
33993;SDS011;20673;48.980;8.138;2023-08-30T05:26:38;17.27;;;14.93;;
33993;SDS011;20673;48.980;8.138;2023-08-30T05:29:04;16.37;;;14.68;;
33993;SDS011;20673;48.980;8.138;2023-08-30T05:31:30;17.47;;;15.13;;
33993;SDS011;20673;48.980;8.138;2023-08-30T05:33:56;17.83;;;14.57;;
33993;SDS011;20673;48.980;8.138;2023-08-30T05:36:22;15.90;;;14.40;;
33993;SDS011;20673;48.980;8.138;2023-08-30T05:38:48;14.90;;;13.50;;
33993;SDS011;20673;48.980;8.138;2023-08-30T05:41:14;16.40;;;14.55;;
33993;SDS011;20673;48.980;8.138;2023-08-30T05:43:40;16.83;;;13.97;;
33993;SDS011;20673;48.980;8.138;2023-08-30T05:46:06;17.12;;;13.53;;
33993;SDS011;20673;48.980;8.138;2023-08-30T05:48:34;14.20;;;12.70;;
33993;SDS011;20673;48.980;8.138;2023-08-30T05:51:00;14.30;;;12.80;;
33993;SDS011;20673;48.980;8.138;2023-08-30T05:53:26;14.00;;;12.45;;
33993;SDS011;20673;48.980;8.138;2023-08-30T05:55:52;16.62;;;12.98;;
33993;SDS011;20673;48.980;8.138;2023-08-30T05:58:18;14.18;;;12.85;;
33993;SDS011;20673;48.980;8.138;2023-08-30T06:00:45;13.55;;;12.15;;
33993;SDS011;20673;48.980;8.138;2023-08-30T06:03:11;13.95;;;12.50;;
33993;SDS011;20673;48.980;8.138;2023-08-30T06:05:37;13.30;;;11.90;;
33993;SDS011;20673;48.980;8.138;2023-08-30T06:08:03;13.20;;;11.90;;
33993;SDS011;20673;48.980;8.138;2023-08-30T06:10:30;13.60;;;11.80;;
33993;SDS011;20673;48.980;8.138;2023-08-30T06:12:56;13.17;;;11.53;;
33993;SDS011;20673;48.980;8.138;2023-08-30T06:15:22;12.93;;;11.30;;
33993;SDS011;20673;48.980;8.138;2023-08-30T06:17:48;13.00;;;11.13;;
33993;SDS011;20673;48.980;8.138;2023-08-30T06:20:15;12.40;;;11.10;;
33993;SDS011;20673;48.980;8.138;2023-08-30T06:22:41;12.40;;;10.80;;
33993;SDS011;20673;48.980;8.138;2023-08-30T06:25:08;11.90;;;10.75;;
33993;SDS011;20673;48.980;8.138;2023-08-30T06:27:41;12.47;;;11.18;;
33993;SDS011;20673;48.980;8.138;2023-08-30T06:30:07;14.50;;;12.15;;
33993;SDS011;20673;48.980;8.138;2023-08-30T06:32:34;13.40;;;11.22;;
33993;SDS011;20673;48.980;8.138;2023-08-30T06:35:00;12.40;;;11.10;;
33993;SDS011;20673;48.980;8.138;2023-08-30T06:37:26;12.18;;;10.70;;
33993;SDS011;20673;48.980;8.138;2023-08-30T06:39:52;15.50;;;12.23;;
33993;SDS011;20673;48.980;8.138;2023-08-30T06:42:18;12.73;;;11.53;;
33993;SDS011;20673;48.980;8.138;2023-08-30T06:44:44;11.30;;;10.15;;
33993;SDS011;20673;48.980;8.138;2023-08-30T06:47:11;12.85;;;11.53;;
33993;SDS011;20673;48.980;8.138;2023-08-30T06:49:37;11.90;;;10.70;;
33993;SDS011;20673;48.980;8.138;2023-08-30T06:52:03;11.88;;;10.72;;
33993;SDS011;20673;48.980;8.138;2023-08-30T06:54:34;13.43;;;10.23;;
33993;SDS011;20673;48.980;8.138;2023-08-30T06:57:01;13.85;;;10.13;;
33993;SDS011;20673;48.980;8.138;2023-08-30T06:59:28;11.55;;;10.35;;
33993;SDS011;20673;48.980;8.138;2023-08-30T07:01:54;11.85;;;10.18;;
33993;SDS011;20673;48.980;8.138;2023-08-30T07:04:20;12.45;;;9.70;;
33993;SDS011;20673;48.980;8.138;2023-08-30T07:06:46;9.00;;;8.08;;
33993;SDS011;20673;48.980;8.138;2023-08-30T07:09:12;9.25;;;8.03;;
33993;SDS011;20673;48.980;8.138;2023-08-30T07:11:41;7.70;;;6.87;;
33993;SDS011;20673;48.980;8.138;2023-08-30T07:14:12;8.00;;;7.17;;
33993;SDS011;20673;48.980;8.138;2023-08-30T07:16:40;7.75;;;6.42;;
33993;SDS011;20673;48.980;8.138;2023-08-30T07:19:06;8.45;;;6.33;;
33993;SDS011;20673;48.980;8.138;2023-08-30T07:21:33;8.15;;;6.80;;
33993;SDS011;20673;48.980;8.138;2023-08-30T07:24:00;8.58;;;7.00;;
33993;SDS011;20673;48.980;8.138;2023-08-30T07:26:27;8.40;;;6.30;;
33993;SDS011;20673;48.980;8.138;2023-08-30T07:28:53;7.30;;;6.20;;
33993;SDS011;20673;48.980;8.138;2023-08-30T07:31:19;8.13;;;6.72;;
33993;SDS011;20673;48.980;8.138;2023-08-30T07:33:46;6.20;;;5.70;;
33993;SDS011;20673;48.980;8.138;2023-08-30T07:36:13;9.65;;;6.72;;
33993;SDS011;20673;48.980;8.138;2023-08-30T07:38:39;5.90;;;5.37;;
33993;SDS011;20673;48.980;8.138;2023-08-30T07:41:05;6.95;;;5.42;;
33993;SDS011;20673;48.980;8.138;2023-08-30T07:43:31;6.40;;;5.10;;
33993;SDS011;20673;48.980;8.138;2023-08-30T07:45:58;5.90;;;5.23;;
33993;SDS011;20673;48.980;8.138;2023-08-30T07:48:24;5.90;;;5.20;;
33993;SDS011;20673;48.980;8.138;2023-08-30T07:50:50;8.37;;;5.50;;
33993;SDS011;20673;48.980;8.138;2023-08-30T07:53:16;5.97;;;5.37;;
33993;SDS011;20673;48.980;8.138;2023-08-30T07:55:42;7.03;;;5.33;;
33993;SDS011;20673;48.980;8.138;2023-08-30T07:58:10;5.67;;;5.07;;
33993;SDS011;20673;48.980;8.138;2023-08-30T08:00:36;7.37;;;5.03;;
33993;SDS011;20673;48.980;8.138;2023-08-30T08:03:02;6.20;;;4.73;;
33993;SDS011;20673;48.980;8.138;2023-08-30T08:05:29;4.83;;;4.33;;
33993;SDS011;20673;48.980;8.138;2023-08-30T08:07:58;5.70;;;5.20;;
33993;SDS011;20673;48.980;8.138;2023-08-30T08:10:26;4.83;;;4.37;;
33993;SDS011;20673;48.980;8.138;2023-08-30T08:12:52;5.40;;;4.13;;
33993;SDS011;20673;48.980;8.138;2023-08-30T08:15:18;5.23;;;4.13;;
33993;SDS011;20673;48.980;8.138;2023-08-30T08:17:45;4.15;;;3.75;;
33993;SDS011;20673;48.980;8.138;2023-08-30T08:20:11;5.07;;;4.53;;
33993;SDS011;20673;48.980;8.138;2023-08-30T08:22:37;4.80;;;3.97;;
33993;SDS011;20673;48.980;8.138;2023-08-30T08:25:03;4.80;;;4.30;;
33993;SDS011;20673;48.980;8.138;2023-08-30T08:27:30;4.67;;;3.90;;
33993;SDS011;20673;48.980;8.138;2023-08-30T08:29:56;5.80;;;4.80;;
33993;SDS011;20673;48.980;8.138;2023-08-30T08:32:22;4.97;;;4.27;;
33993;SDS011;20673;48.980;8.138;2023-08-30T08:34:48;5.70;;;5.20;;
33993;SDS011;20673;48.980;8.138;2023-08-30T08:37:14;8.23;;;5.22;;
33993;SDS011;20673;48.980;8.138;2023-08-30T08:39:41;6.07;;;5.47;;
33993;SDS011;20673;48.980;8.138;2023-08-30T08:42:08;6.47;;;5.50;;
33993;SDS011;20673;48.980;8.138;2023-08-30T08:44:34;6.23;;;5.63;;
33993;SDS011;20673;48.980;8.138;2023-08-30T08:47:02;6.30;;;5.70;;
33993;SDS011;20673;48.980;8.138;2023-08-30T08:49:29;8.20;;;6.93;;
33993;SDS011;20673;48.980;8.138;2023-08-30T08:51:56;8.50;;;6.80;;
33993;SDS011;20673;48.980;8.138;2023-08-30T08:54:23;6.90;;;5.53;;
33993;SDS011;20673;48.980;8.138;2023-08-30T08:56:50;7.03;;;5.78;;
33993;SDS011;20673;48.980;8.138;2023-08-30T08:59:16;7.17;;;6.47;;
33993;SDS011;20673;48.980;8.138;2023-08-30T09:01:45;7.63;;;6.90;;
33993;SDS011;20673;48.980;8.138;2023-08-30T09:04:13;7.05;;;6.42;;
33993;SDS011;20673;48.980;8.138;2023-08-30T09:06:39;7.35;;;6.72;;
33993;SDS011;20673;48.980;8.138;2023-08-30T09:09:06;6.47;;;5.87;;
33993;SDS011;20673;48.980;8.138;2023-08-30T09:11:33;7.58;;;5.92;;
33993;SDS011;20673;48.980;8.138;2023-08-30T09:14:00;10.55;;;6.40;;
33993;SDS011;20673;48.980;8.138;2023-08-30T09:16:27;7.00;;;6.37;;
33993;SDS011;20673;48.980;8.138;2023-08-30T09:18:59;7.03;;;6.35;;
33993;SDS011;20673;48.980;8.138;2023-08-30T09:21:28;6.33;;;5.83;;
33993;SDS011;20673;48.980;8.138;2023-08-30T09:24:02;6.97;;;6.33;;
33993;SDS011;20673;48.980;8.138;2023-08-30T09:26:30;7.87;;;7.15;;
33993;SDS011;20673;48.980;8.138;2023-08-30T09:29:05;6.67;;;5.93;;
33993;SDS011;20673;48.980;8.138;2023-08-30T09:31:34;7.13;;;6.00;;
33993;SDS011;20673;48.980;8.138;2023-08-30T09:34:06;7.47;;;6.73;;
33993;SDS011;20673;48.980;8.138;2023-08-30T09:36:36;7.17;;;6.47;;
33993;SDS011;20673;48.980;8.138;2023-08-30T09:39:04;6.77;;;6.17;;
33993;SDS011;20673;48.980;8.138;2023-08-30T09:41:33;7.40;;;6.67;;
33993;SDS011;20673;48.980;8.138;2023-08-30T09:44:00;6.43;;;5.87;;
33993;SDS011;20673;48.980;8.138;2023-08-30T09:46:44;7.50;;;6.80;;
33993;SDS011;20673;48.980;8.138;2023-08-30T09:49:20;7.17;;;6.47;;
33993;SDS011;20673;48.980;8.138;2023-08-30T09:51:49;6.83;;;5.80;;
33993;SDS011;20673;48.980;8.138;2023-08-30T09:54:21;5.47;;;4.97;;
33993;SDS011;20673;48.980;8.138;2023-08-30T09:56:49;6.10;;;5.50;;
33993;SDS011;20673;48.980;8.138;2023-08-30T09:59:21;8.83;;;5.17;;
33993;SDS011;20673;48.980;8.138;2023-08-30T10:01:48;5.83;;;5.33;;
33993;SDS011;20673;48.980;8.138;2023-08-30T10:04:18;5.25;;;4.65;;
33993;SDS011;20673;48.980;8.138;2023-08-30T10:06:45;6.22;;;4.87;;
33993;SDS011;20673;48.980;8.138;2023-08-30T10:09:13;5.33;;;4.65;;
33993;SDS011;20673;48.980;8.138;2023-08-30T10:11:42;5.60;;;5.08;;
33993;SDS011;20673;48.980;8.138;2023-08-30T10:14:11;5.00;;;4.60;;
33993;SDS011;20673;48.980;8.138;2023-08-30T10:16:42;5.85;;;4.28;;
33993;SDS011;20673;48.980;8.138;2023-08-30T10:19:11;9.23;;;4.35;;
33993;SDS011;20673;48.980;8.138;2023-08-30T10:21:47;5.78;;;5.20;;
33993;SDS011;20673;48.980;8.138;2023-08-30T10:24:18;5.00;;;4.45;;
33993;SDS011;20673;48.980;8.138;2023-08-30T10:26:47;6.33;;;5.05;;
33993;SDS011;20673;48.980;8.138;2023-08-30T10:29:14;5.47;;;3.95;;
33993;SDS011;20673;48.980;8.138;2023-08-30T10:31:44;6.53;;;4.47;;
33993;SDS011;20673;48.980;8.138;2023-08-30T10:34:14;4.12;;;3.65;;
33993;SDS011;20673;48.980;8.138;2023-08-30T10:36:43;4.90;;;3.90;;
33993;SDS011;20673;48.980;8.138;2023-08-30T10:39:12;5.40;;;4.65;;
33993;SDS011;20673;48.980;8.138;2023-08-30T10:41:56;8.00;;;5.50;;
33993;SDS011;20673;48.980;8.138;2023-08-30T10:44:23;6.05;;;5.10;;
33993;SDS011;20673;48.980;8.138;2023-08-30T10:46:53;6.05;;;4.22;;
33993;SDS011;20673;48.980;8.138;2023-08-30T10:49:20;5.62;;;4.62;;
33993;SDS011;20673;48.980;8.138;2023-08-30T10:51:56;4.87;;;4.45;;
33993;SDS011;20673;48.980;8.138;2023-08-30T10:54:24;6.40;;;4.08;;
33993;SDS011;20673;48.980;8.138;2023-08-30T10:59:26;3.87;;;3.45;;
33993;SDS011;20673;48.980;8.138;2023-08-30T11:01:55;4.50;;;3.47;;
33993;SDS011;20673;48.980;8.138;2023-08-30T11:04:23;5.47;;;3.40;;
33993;SDS011;20673;48.980;8.138;2023-08-30T11:06:50;3.77;;;3.42;;
33993;SDS011;20673;48.980;8.138;2023-08-30T11:09:18;4.33;;;3.02;;
33993;SDS011;20673;48.980;8.138;2023-08-30T11:11:47;3.00;;;2.75;;
33993;SDS011;20673;48.980;8.138;2023-08-30T11:14:16;4.28;;;2.90;;
33993;SDS011;20673;48.980;8.138;2023-08-30T11:16:44;2.70;;;2.50;;
33993;SDS011;20673;48.980;8.138;2023-08-30T11:19:11;2.98;;;2.70;;
33993;SDS011;20673;48.980;8.138;2023-08-30T11:21:38;2.75;;;2.47;;
33993;SDS011;20673;48.980;8.138;2023-08-30T11:24:10;3.58;;;3.22;;
33993;SDS011;20673;48.980;8.138;2023-08-30T11:26:37;7.30;;;3.40;;
33993;SDS011;20673;48.980;8.138;2023-08-30T11:29:08;5.00;;;2.80;;
33993;SDS011;20673;48.980;8.138;2023-08-30T11:31:35;2.77;;;2.30;;
33993;SDS011;20673;48.980;8.138;2023-08-30T11:34:01;4.35;;;2.62;;
33993;SDS011;20673;48.980;8.138;2023-08-30T11:36:29;2.45;;;2.25;;
33993;SDS011;20673;48.980;8.138;2023-08-30T11:38:57;3.37;;;2.52;;
33993;SDS011;20673;48.980;8.138;2023-08-30T11:41:24;2.65;;;2.42;;
33993;SDS011;20673;48.980;8.138;2023-08-30T11:43:51;3.20;;;2.12;;
33993;SDS011;20673;48.980;8.138;2023-08-30T11:46:19;2.50;;;2.30;;
33993;SDS011;20673;48.980;8.138;2023-08-30T11:48:47;2.58;;;2.37;;
33993;SDS011;20673;48.980;8.138;2023-08-30T11:51:16;2.17;;;1.90;;
33993;SDS011;20673;48.980;8.138;2023-08-30T11:53:44;2.75;;;2.08;;
33993;SDS011;20673;48.980;8.138;2023-08-30T11:56:11;2.80;;;2.52;;
33993;SDS011;20673;48.980;8.138;2023-08-30T11:58:39;2.65;;;2.00;;
33993;SDS011;20673;48.980;8.138;2023-08-30T12:01:06;3.08;;;2.30;;
33993;SDS011;20673;48.980;8.138;2023-08-30T12:03:33;4.15;;;2.65;;
33993;SDS011;20673;48.980;8.138;2023-08-30T12:06:00;3.58;;;2.55;;
33993;SDS011;20673;48.980;8.138;2023-08-30T12:08:30;4.47;;;2.72;;
33993;SDS011;20673;48.980;8.138;2023-08-30T12:10:57;7.35;;;2.27;;
33993;SDS011;20673;48.980;8.138;2023-08-30T12:15:57;2.80;;;1.70;;
33993;SDS011;20673;48.980;8.138;2023-08-30T12:18:25;2.25;;;2.05;;
33993;SDS011;20673;48.980;8.138;2023-08-30T12:21:00;3.42;;;2.27;;
33993;SDS011;20673;48.980;8.138;2023-08-30T12:23:29;3.00;;;1.67;;
33993;SDS011;20673;48.980;8.138;2023-08-30T12:25:58;4.10;;;2.15;;
33993;SDS011;20673;48.980;8.138;2023-08-30T12:28:30;2.37;;;2.00;;
33993;SDS011;20673;48.980;8.138;2023-08-30T12:31:05;2.42;;;2.22;;
33993;SDS011;20673;48.980;8.138;2023-08-30T12:33:33;2.52;;;1.77;;
33993;SDS011;20673;48.980;8.138;2023-08-30T12:36:00;4.00;;;2.25;;
33993;SDS011;20673;48.980;8.138;2023-08-30T12:38:26;2.17;;;1.98;;
33993;SDS011;20673;48.980;8.138;2023-08-30T12:40:54;3.60;;;1.85;;
33993;SDS011;20673;48.980;8.138;2023-08-30T12:43:22;3.20;;;2.10;;
33993;SDS011;20673;48.980;8.138;2023-08-30T12:45:49;2.45;;;2.12;;
33993;SDS011;20673;48.980;8.138;2023-08-30T12:48:16;5.67;;;2.37;;
33993;SDS011;20673;48.980;8.138;2023-08-30T12:50:45;2.62;;;2.12;;
33993;SDS011;20673;48.980;8.138;2023-08-30T12:53:13;4.30;;;1.80;;
33993;SDS011;20673;48.980;8.138;2023-08-30T12:55:43;4.70;;;2.20;;
33993;SDS011;20673;48.980;8.138;2023-08-30T12:58:10;2.80;;;2.15;;
33993;SDS011;20673;48.980;8.138;2023-08-30T13:00:37;2.50;;;2.17;;
33993;SDS011;20673;48.980;8.138;2023-08-30T13:03:04;3.55;;;2.17;;
33993;SDS011;20673;48.980;8.138;2023-08-30T13:05:30;3.35;;;2.30;;
33993;SDS011;20673;48.980;8.138;2023-08-30T13:08:00;1.98;;;1.67;;
33993;SDS011;20673;48.980;8.138;2023-08-30T13:10:27;2.25;;;2.02;;
33993;SDS011;20673;48.980;8.138;2023-08-30T13:12:54;3.12;;;2.00;;
33993;SDS011;20673;48.980;8.138;2023-08-30T13:15:20;2.95;;;1.98;;
33993;SDS011;20673;48.980;8.138;2023-08-30T13:17:47;2.85;;;2.08;;
33993;SDS011;20673;48.980;8.138;2023-08-30T13:20:13;1.98;;;1.80;;
33993;SDS011;20673;48.980;8.138;2023-08-30T13:22:40;2.08;;;1.87;;
33993;SDS011;20673;48.980;8.138;2023-08-30T13:25:06;3.45;;;1.92;;
33993;SDS011;20673;48.980;8.138;2023-08-30T13:27:34;2.25;;;1.80;;
33993;SDS011;20673;48.980;8.138;2023-08-30T13:30:01;3.87;;;1.80;;
33993;SDS011;20673;48.980;8.138;2023-08-30T13:32:27;3.37;;;2.00;;
33993;SDS011;20673;48.980;8.138;2023-08-30T13:34:54;6.53;;;2.00;;
33993;SDS011;20673;48.980;8.138;2023-08-30T13:37:20;2.62;;;1.98;;
33993;SDS011;20673;48.980;8.138;2023-08-30T13:39:48;3.17;;;1.62;;
33993;SDS011;20673;48.980;8.138;2023-08-30T13:42:15;3.45;;;1.92;;
33993;SDS011;20673;48.980;8.138;2023-08-30T13:44:43;2.27;;;1.50;;
33993;SDS011;20673;48.980;8.138;2023-08-30T13:47:12;2.10;;;1.90;;
33993;SDS011;20673;48.980;8.138;2023-08-30T13:49:38;2.27;;;1.92;;
33993;SDS011;20673;48.980;8.138;2023-08-30T13:52:04;2.95;;;1.50;;
33993;SDS011;20673;48.980;8.138;2023-08-30T13:54:31;1.52;;;1.32;;
33993;SDS011;20673;48.980;8.138;2023-08-30T13:56:57;2.65;;;1.80;;
33993;SDS011;20673;48.980;8.138;2023-08-30T13:59:24;1.92;;;1.72;;
33993;SDS011;20673;48.980;8.138;2023-08-30T14:01:50;1.70;;;1.40;;
33993;SDS011;20673;48.980;8.138;2023-08-30T14:04:16;5.08;;;1.70;;
33993;SDS011;20673;48.980;8.138;2023-08-30T14:06:42;2.87;;;1.75;;
33993;SDS011;20673;48.980;8.138;2023-08-30T14:09:08;3.27;;;1.80;;
33993;SDS011;20673;48.980;8.138;2023-08-30T14:11:34;3.08;;;1.62;;
33993;SDS011;20673;48.980;8.138;2023-08-30T14:14:02;3.10;;;1.90;;
33993;SDS011;20673;48.980;8.138;2023-08-30T14:16:29;2.60;;;1.55;;
33993;SDS011;20673;48.980;8.138;2023-08-30T14:18:55;3.70;;;1.75;;
33993;SDS011;20673;48.980;8.138;2023-08-30T14:21:23;1.95;;;1.75;;
33993;SDS011;20673;48.980;8.138;2023-08-30T14:23:49;3.37;;;1.80;;
33993;SDS011;20673;48.980;8.138;2023-08-30T14:26:15;2.45;;;2.00;;
33993;SDS011;20673;48.980;8.138;2023-08-30T14:28:41;5.47;;;2.05;;
33993;SDS011;20673;48.980;8.138;2023-08-30T14:31:08;2.05;;;1.42;;
33993;SDS011;20673;48.980;8.138;2023-08-30T14:33:35;2.47;;;1.87;;
33993;SDS011;20673;48.980;8.138;2023-08-30T14:36:03;2.33;;;1.62;;
33993;SDS011;20673;48.980;8.138;2023-08-30T14:38:36;2.37;;;1.57;;
33993;SDS011;20673;48.980;8.138;2023-08-30T14:41:03;2.75;;;1.67;;
33993;SDS011;20673;48.980;8.138;2023-08-30T14:43:30;2.30;;;1.95;;
33993;SDS011;20673;48.980;8.138;2023-08-30T14:45:59;3.35;;;1.62;;
33993;SDS011;20673;48.980;8.138;2023-08-30T14:51:04;2.00;;;1.47;;
33993;SDS011;20673;48.980;8.138;2023-08-30T14:53:27;2.30;;;1.60;;